createdAt,value
2023-04-15T00:02:02.820Z,100640.88
2023-04-15T00:04:31.733Z,100633.28
2023-04-15T00:06:59.348Z,100635.56
2023-04-15T00:09:28.179Z,100637.41
2023-04-15T00:11:55.713Z,100624.47
2023-04-15T00:14:23.206Z,100628.75
2023-04-15T00:16:56.011Z,100621.81
2023-04-15T00:19:24.067Z,100617.50
2023-04-15T00:21:51.960Z,100610.78
2023-04-15T00:24:19.504Z,100609.72
2023-04-15T00:26:49.064Z,100611.19
2023-04-15T00:29:16.585Z,100605.44
2023-04-15T00:31:44.628Z,100613.03
2023-04-15T00:34:12.981Z,100610.78
2023-04-15T00:36:40.542Z,100610.13
2023-04-15T00:39:08.224Z,100607.88
2023-04-15T00:41:39.032Z,100610.13
2023-04-15T00:44:08.469Z,100601.09
2023-04-15T00:46:38.226Z,100604.63
2023-04-15T00:49:07.046Z,100605.84
2023-04-15T00:51:36.727Z,100609.13
2023-04-15T00:54:04.505Z,100603.78
2023-04-15T00:56:32.390Z,100606.47
2023-04-15T00:59:00.953Z,100612.59
2023-04-15T01:01:30.868Z,100610.78
2023-04-15T01:03:59.098Z,100614.47
2023-04-15T01:06:29.148Z,100612.41
2023-04-15T01:08:57.248Z,100616.13
2023-04-15T01:11:25.659Z,100610.81
2023-04-15T01:13:53.800Z,100610.56
2023-04-15T01:16:21.806Z,100614.47
2023-04-15T01:18:52.127Z,100606.47
2023-04-15T01:21:20.694Z,100606.66
2023-04-15T01:24:02.858Z,100608.09
2023-04-15T01:26:31.905Z,100602.94
2023-04-15T01:28:59.630Z,100599.88
2023-04-15T01:31:27.525Z,100604.63
2023-04-15T01:33:55.619Z,100597.66
2023-04-15T01:36:23.197Z,100598.47
2023-04-15T01:38:54.264Z,100597.47
2023-04-15T01:41:25.986Z,100591.50
2023-04-15T01:43:55.073Z,100589.88
2023-04-15T01:46:22.719Z,100583.75
2023-04-15T01:48:50.860Z,100577.78
2023-04-15T01:51:18.506Z,100575.53
2023-04-15T01:53:46.394Z,100578.59
2023-04-15T01:56:16.479Z,100579.03
2023-04-15T01:58:44.705Z,100576.38
2023-04-15T02:01:13.609Z,100575.75
2023-04-15T02:03:41.253Z,100566.72
2023-04-15T02:06:09.185Z,100570.25
2023-04-15T02:08:36.714Z,100561.66
2023-04-15T02:11:05.237Z,100570.03
2023-04-15T02:13:33.193Z,100566.16
2023-04-15T02:16:01.001Z,100570.69
2023-04-15T02:18:29.922Z,100566.56
2023-04-15T02:20:58.589Z,100568.38
2023-04-15T02:23:26.503Z,100563.06
2023-04-15T02:25:54.424Z,100558.97
2023-04-15T02:28:22.119Z,100562.44
2023-04-15T02:30:50.815Z,100564.72
2023-04-15T02:33:18.442Z,100562.06
2023-04-15T02:35:47.326Z,100559.97
2023-04-15T02:38:16.737Z,100554.88
2023-04-15T02:40:44.370Z,100559.16
2023-04-15T02:43:12.142Z,100564.47
2023-04-15T02:45:39.749Z,100554.25
2023-04-15T02:48:07.388Z,100558.75
2023-04-15T02:50:35.033Z,100559.16
2023-04-15T02:53:04.848Z,100567.97
2023-04-15T02:55:32.469Z,100571.84
2023-04-15T02:58:01.050Z,100564.91
2023-04-15T03:00:28.654Z,100565.28
2023-04-15T03:03:00.074Z,100569.78
2023-04-15T03:05:28.217Z,100566.94
2023-04-15T03:07:55.882Z,100565.28
2023-04-15T03:10:24.802Z,100569.41
2023-04-15T03:12:52.509Z,100569.00
2023-04-15T03:15:23.109Z,100565.72
2023-04-15T03:17:53.188Z,100564.09
2023-04-15T03:20:21.013Z,100566.97
2023-04-15T03:22:49.574Z,100575.59
2023-04-15T03:25:17.397Z,100577.22
2023-04-15T03:27:46.585Z,100567.41
2023-04-15T03:30:14.859Z,100561.66
2023-04-15T03:32:42.559Z,100566.97
2023-04-15T03:35:10.561Z,100562.47
2023-04-15T03:37:38.252Z,100555.13
2023-04-15T03:40:07.112Z,100555.94
2023-04-15T03:42:34.757Z,100552.03
2023-04-15T03:45:04.120Z,100548.94
2023-04-15T03:47:32.031Z,100554.47
2023-04-15T03:49:59.570Z,100550.38
2023-04-15T03:52:27.132Z,100552.22
2023-04-15T03:54:54.649Z,100557.34
2023-04-15T03:57:22.174Z,100554.28
2023-04-15T03:59:49.709Z,100555.91
2023-04-15T04:02:18.664Z,100549.78
2023-04-15T04:04:46.387Z,100556.56
2023-04-15T04:07:16.708Z,100567.41
2023-04-15T04:09:45.662Z,100566.19
2023-04-15T04:12:14.413Z,100565.59
2023-04-15T04:14:41.968Z,100563.75
2023-04-15T04:17:09.922Z,100565.75
2023-04-15T04:19:38.824Z,100555.13
2023-04-15T04:22:06.406Z,100565.81
2023-04-15T04:24:33.962Z,100563.34
2023-04-15T04:27:02.082Z,100572.78
2023-04-15T04:29:29.612Z,100568.25
2023-04-15T04:31:57.230Z,100570.91
2023-04-15T04:34:24.911Z,100564.16
2023-04-15T04:36:53.764Z,100567.22
2023-04-15T04:39:21.243Z,100574.41
2023-04-15T04:41:48.778Z,100578.91
2023-04-15T04:44:16.300Z,100573.56
2023-04-15T04:46:43.839Z,100577.88
2023-04-15T04:49:11.406Z,100581.56
2023-04-15T04:51:39.471Z,100569.91
2023-04-15T04:54:08.611Z,100574.38
2023-04-15T04:56:36.293Z,100573.16
2023-04-15T04:59:03.830Z,100582.56
2023-04-15T05:01:31.426Z,100575.84
2023-04-15T05:03:59.123Z,100577.06
2023-04-15T05:06:27.620Z,100573.78
2023-04-15T05:08:55.127Z,100577.69
2023-04-15T05:11:24.043Z,100568.66
2023-04-15T05:13:51.577Z,100576.84
2023-04-15T05:16:19.878Z,100571.53
2023-04-15T05:18:47.490Z,100569.28
2023-04-15T05:21:15.069Z,100567.00
2023-04-15T05:23:42.639Z,100562.53
2023-04-15T05:26:10.224Z,100565.19
2023-04-15T05:28:39.135Z,100570.34
2023-04-15T05:31:07.285Z,100573.19
2023-04-15T05:33:34.985Z,100571.19
2023-04-15T05:36:02.569Z,100582.44
2023-04-15T05:38:30.070Z,100583.28
2023-04-15T05:40:57.682Z,100586.75
2023-04-15T05:43:25.386Z,100584.72
2023-04-15T05:45:54.341Z,100582.47
2023-04-15T05:48:21.876Z,100585.56
2023-04-15T05:50:49.449Z,100579.59
2023-04-15T05:53:17.157Z,100579.81
2023-04-15T05:55:44.759Z,100589.00
2023-04-15T05:58:12.465Z,100584.31
2023-04-15T06:00:40.376Z,100588.81
2023-04-15T06:03:09.354Z,100591.50
2023-04-15T06:05:36.993Z,100594.75
2023-04-15T06:08:04.536Z,100601.13
2023-04-15T06:10:36.282Z,100596.81
2023-04-15T06:13:04.134Z,100599.06
2023-04-15T06:15:31.823Z,100600.72
2023-04-15T06:17:59.434Z,100604.00
2023-04-15T06:20:28.621Z,100595.41
2023-04-15T06:22:56.300Z,100599.91
2023-04-15T06:25:24.038Z,100618.34
2023-04-15T06:27:51.601Z,100612.19
2023-04-15T06:30:19.253Z,100622.44
2023-04-15T06:32:47.218Z,100617.94
2023-04-15T06:35:15.323Z,100626.75
2023-04-15T06:37:44.217Z,100626.56
2023-04-15T06:40:12.384Z,100628.19
2023-04-15T06:42:39.936Z,100624.13
2023-04-15T06:45:08.728Z,100625.13
2023-04-15T06:47:36.311Z,100623.50
2023-04-15T06:50:03.985Z,100629.84
2023-04-15T06:52:31.600Z,100630.06
2023-04-15T06:55:00.880Z,100632.34
2023-04-15T06:57:28.680Z,100630.28
2023-04-15T06:59:56.225Z,100637.25
2023-04-15T07:02:24.195Z,100639.69
2023-04-15T07:04:51.821Z,100634.78
2023-04-15T07:07:19.580Z,100647.50
2023-04-15T07:09:47.211Z,100646.06
2023-04-15T07:12:16.173Z,100652.41
2023-04-15T07:14:43.707Z,100645.44
2023-04-15T07:17:11.419Z,100648.34
2023-04-15T07:19:39.037Z,100644.63
2023-04-15T07:22:06.621Z,100644.63
2023-04-15T07:24:34.125Z,100648.72
2023-04-15T07:27:01.991Z,100655.72
2023-04-15T07:29:31.404Z,100653.88
2023-04-15T07:31:58.983Z,100655.72
2023-04-15T07:34:26.528Z,100652.84
2023-04-15T07:36:54.109Z,100658.56
2023-04-15T07:39:22.244Z,100658.78
2023-04-15T07:41:49.968Z,100660.22
2023-04-15T07:44:17.495Z,100665.97
2023-04-15T07:46:46.520Z,100670.50
2023-04-15T07:49:14.376Z,100670.91
2023-04-15T07:51:41.953Z,100669.66
2023-04-15T07:54:09.964Z,100670.50
2023-04-15T07:56:37.677Z,100674.00
2023-04-15T07:59:06.466Z,100665.97
2023-04-15T08:01:34.185Z,100673.38
2023-04-15T08:04:03.917Z,100668.84
2023-04-15T08:06:32.917Z,100678.31
2023-04-15T08:09:00.828Z,100681.16
2023-04-15T08:11:28.764Z,100678.31
2023-04-15T08:13:56.455Z,100684.44
2023-04-15T08:16:25.974Z,100683.22
2023-04-15T08:18:54.974Z,100684.44
2023-04-15T08:21:23.968Z,100685.69
2023-04-15T08:23:53.431Z,100687.75
2023-04-15T08:26:22.080Z,100691.22
2023-04-15T08:28:50.419Z,100694.69
2023-04-15T08:31:19.542Z,100697.19
2023-04-15T08:33:47.390Z,100692.03
2023-04-15T08:36:14.990Z,100698.41
2023-04-15T08:38:45.523Z,100700.47
2023-04-15T08:41:21.720Z,100698.81
2023-04-15T08:43:53.959Z,100696.31
2023-04-15T08:46:22.706Z,100705.78
2023-04-15T08:48:50.938Z,100702.50
2023-04-15T08:51:18.989Z,100710.72
2023-04-15T08:53:48.048Z,100712.75
2023-04-15T08:56:17.363Z,100708.06
2023-04-15T08:58:45.617Z,100712.34
2023-04-15T09:01:13.811Z,100718.50
2023-04-15T09:03:41.746Z,100720.34
2023-04-15T09:06:09.750Z,100725.69
2023-04-15T09:08:37.345Z,100723.03
2023-04-15T09:11:06.466Z,100723.41
2023-04-15T09:13:34.310Z,100720.91
2023-04-15T09:16:03.921Z,100717.63
2023-04-15T09:18:33.305Z,100735.50
2023-04-15T09:21:06.562Z,100722.91
2023-04-15T09:23:34.350Z,100720.63
2023-04-15T09:26:02.299Z,100724.16
2023-04-15T09:28:31.522Z,100722.25
2023-04-15T09:30:59.463Z,100726.34
2023-04-15T09:33:28.038Z,100719.50
2023-04-15T09:36:01.811Z,100716.75
2023-04-15T09:38:29.464Z,100725.53
2023-04-15T09:40:57.142Z,100724.06
2023-04-15T09:43:38.019Z,100731.66
2023-04-15T09:46:06.958Z,100736.59
2023-04-15T09:48:34.594Z,100730.41
2023-04-15T09:51:02.945Z,100736.13
2023-04-15T09:53:31.915Z,100741.91
2023-04-15T09:56:02.275Z,100738.13
2023-04-15T09:58:31.331Z,100744.59
2023-04-15T10:01:00.531Z,100743.38
2023-04-15T10:03:31.139Z,100744.94
2023-04-15T10:06:01.034Z,100737.47
2023-04-15T10:08:30.059Z,100740.78
2023-04-15T10:10:57.997Z,100748.72
2023-04-15T10:13:26.903Z,100742.09
2023-04-15T10:15:59.116Z,100758.16
2023-04-15T10:18:27.881Z,100751.47
2023-04-15T10:20:58.039Z,100749.34
2023-04-15T10:23:25.742Z,100745.63
2023-04-15T10:25:54.980Z,100741.91
2023-04-15T10:28:23.515Z,100749.81
2023-04-15T10:30:52.039Z,100751.75
2023-04-15T10:33:22.511Z,100749.66
2023-04-15T10:35:51.917Z,100758.44
2023-04-15T10:38:39.867Z,100752.94
2023-04-15T10:41:20.230Z,100751.88
2023-04-15T10:43:53.385Z,100748.72
2023-04-15T10:46:24.004Z,100748.94
2023-04-15T10:48:52.982Z,100743.41
2023-04-15T10:51:29.407Z,100750.69
2023-04-15T10:54:01.741Z,100749.19
2023-04-15T10:56:31.150Z,100756.69
2023-04-15T10:59:00.940Z,100758.31
2023-04-15T11:01:54.130Z,100753.03
2023-04-15T11:04:57.433Z,100762.75
2023-04-15T11:07:35.504Z,100757.59
2023-04-15T11:10:04.921Z,100772.31
2023-04-15T11:12:36.645Z,100758.63
2023-04-15T11:15:30.159Z,100762.28
2023-04-15T11:17:58.085Z,100767.66
2023-04-15T11:20:26.069Z,100769.66
2023-04-15T11:23:14.141Z,100770.47
2023-04-15T11:25:44.726Z,100777.00
2023-04-15T11:28:13.169Z,100778.53
2023-04-15T11:30:42.977Z,100773.84
2023-04-15T11:33:13.793Z,100781.56
2023-04-15T11:35:42.635Z,100785.53
2023-04-15T11:38:12.850Z,100783.31
2023-04-15T11:40:41.753Z,100798.31
2023-04-15T11:43:12.433Z,100794.31
2023-04-15T11:45:50.096Z,100799.22
2023-04-15T11:48:18.380Z,100800.06
2023-04-15T11:50:46.405Z,100804.97
2023-04-15T11:53:15.108Z,100813.72
2023-04-15T11:55:44.981Z,100817.44
2023-04-15T11:58:16.449Z,100814.91
2023-04-15T12:00:48.786Z,100822.00
2023-04-15T12:03:20.098Z,100831.94
2023-04-15T12:06:08.244Z,100825.94
2023-04-15T12:08:59.299Z,100828.75
2023-04-15T12:11:32.796Z,100831.44
2023-04-15T12:14:07.783Z,100833.22
2023-04-15T12:16:48.990Z,100840.22
2023-04-15T12:19:19.792Z,100831.84
2023-04-15T12:21:49.073Z,100842.03
2023-04-15T12:24:16.632Z,100844.72
2023-04-15T12:26:46.164Z,100850.38
2023-04-15T12:29:17.342Z,100854.56
2023-04-15T12:31:50.479Z,100850.94
2023-04-15T12:34:18.587Z,100858.56
2023-04-15T12:36:46.123Z,100855.41
2023-04-15T12:39:14.095Z,100857.88
2023-04-15T12:41:41.809Z,100857.97
2023-04-15T12:44:09.480Z,100861.97
2023-04-15T12:46:38.684Z,100857.16
2023-04-15T12:49:06.264Z,100866.28
2023-04-15T12:51:33.782Z,100867.94
2023-04-15T12:54:01.495Z,100869.22
2023-04-15T12:56:29.249Z,100872.66
2023-04-15T12:58:57.469Z,100874.25
2023-04-15T13:01:25.042Z,100883.97
2023-04-15T13:03:54.150Z,100876.84
2023-04-15T13:06:21.797Z,100879.06
2023-04-15T13:08:57.933Z,100881.03
2023-04-15T13:11:26.261Z,100887.63
2023-04-15T13:13:53.854Z,100889.00
2023-04-15T13:16:21.861Z,100888.19
2023-04-15T13:18:49.501Z,100882.69
2023-04-15T13:21:19.384Z,100893.13
2023-04-15T13:23:47.114Z,100896.31
2023-04-15T13:26:14.656Z,100896.16
2023-04-15T13:28:42.171Z,100893.47
2023-04-15T13:31:09.900Z,100902.63
2023-04-15T13:33:37.556Z,100900.84
2023-04-15T13:36:05.278Z,100888.34
2023-04-15T13:38:34.160Z,100898.75
2023-04-15T13:41:01.732Z,100906.25
2023-04-15T13:43:29.553Z,100908.47
2023-04-15T13:45:57.117Z,100915.72
2023-04-15T13:48:24.841Z,100914.88
2023-04-15T13:50:52.415Z,100918.59
2023-04-15T13:53:19.911Z,100919.88
2023-04-15T13:55:48.768Z,100921.28
2023-04-15T13:58:17.069Z,100923.75
2023-04-15T14:00:44.622Z,100927.47
2023-04-15T14:03:12.384Z,100930.41
2023-04-15T14:05:40.210Z,100931.34
2023-04-15T14:08:07.816Z,100932.50
2023-04-15T14:10:36.157Z,100936.47
2023-04-15T14:13:05.162Z,100938.22
2023-04-15T14:15:32.753Z,100943.25
2023-04-15T14:18:00.394Z,100951.00
2023-04-15T14:20:27.932Z,100958.81
2023-04-15T14:22:55.512Z,100951.69
2023-04-15T14:25:32.738Z,100956.38
2023-04-15T14:28:01.471Z,100952.28
2023-04-15T14:30:30.726Z,100948.31
2023-04-15T14:32:58.381Z,100953.25
2023-04-15T14:35:26.817Z,100957.91
2023-04-15T14:37:54.547Z,100967.34
2023-04-15T14:40:22.303Z,100965.16
2023-04-15T14:42:49.970Z,100976.03
2023-04-15T14:45:17.727Z,100977.44
2023-04-15T14:47:46.767Z,100983.94
2023-04-15T14:50:14.934Z,100977.25
2023-04-15T14:52:42.520Z,100986.50
2023-04-15T14:55:11.577Z,100992.28
2023-04-15T14:57:39.717Z,100985.63
2023-04-15T15:00:08.649Z,100987.38
2023-04-15T15:02:39.652Z,100995.31
2023-04-15T15:05:11.470Z,100990.66
2023-04-15T15:07:40.658Z,100996.41
2023-04-15T15:10:09.290Z,100999.44
2023-04-15T15:12:36.894Z,100997.06
2023-04-15T15:15:15.779Z,101018.06
2023-04-15T15:17:52.874Z,101015.44
2023-04-15T15:20:21.890Z,101019.56
2023-04-15T15:22:49.625Z,101013.28
2023-04-15T15:25:17.317Z,101009.88
2023-04-15T15:27:45.140Z,101021.34
2023-04-15T15:30:13.791Z,101020.34
2023-04-15T15:32:42.585Z,101025.47
2023-04-15T15:35:11.288Z,101028.72
2023-04-15T15:37:40.216Z,101026.63
2023-04-15T15:40:09.174Z,101029.53
2023-04-15T15:42:36.786Z,101028.94
2023-04-15T15:45:04.760Z,101043.72
2023-04-15T15:47:32.342Z,101043.72
2023-04-15T15:50:00.957Z,101044.25
2023-04-15T15:52:28.810Z,101057.09
2023-04-15T15:54:57.657Z,101066.78
2023-04-15T15:57:25.245Z,101063.94
2023-04-15T16:00:04.748Z,101066.41
2023-04-15T16:03:04.303Z,101072.28
2023-04-15T16:05:25.769Z,101076.91
2023-04-15T16:07:53.449Z,101071.34
2023-04-15T16:10:22.415Z,101080.47
2023-04-15T16:12:50.766Z,101086.47
2023-04-15T16:15:18.377Z,101082.41
2023-04-15T16:17:45.959Z,101093.25
2023-04-15T16:20:13.633Z,101089.09
2023-04-15T16:22:41.271Z,101098.94
2023-04-15T16:25:09.532Z,101098.31
2023-04-15T16:30:11.061Z,101102.72
2023-04-15T16:32:38.894Z,101109.56
2023-04-15T16:35:07.452Z,101110.06
2023-04-15T16:37:36.066Z,101112.16
2023-04-15T16:40:04.157Z,101116.91
2023-04-15T16:42:32.129Z,101114.88
2023-04-15T16:45:01.174Z,101117.78
2023-04-15T16:47:28.956Z,101126.41
2023-04-15T16:49:56.503Z,101126.38
2023-04-15T16:52:24.139Z,101131.78
2023-04-15T16:54:51.907Z,101135.09
2023-04-15T16:57:19.613Z,101131.41
2023-04-15T16:59:47.208Z,101135.94
2023-04-15T17:02:16.305Z,101144.66
2023-04-15T17:04:44.122Z,101146.13
2023-04-15T17:07:11.834Z,101145.50
2023-04-15T17:09:40.106Z,101150.03
2023-04-15T17:12:07.991Z,101147.56
2023-04-15T17:14:35.558Z,101152.31
2023-04-15T17:17:03.137Z,101161.63
2023-04-15T17:19:31.959Z,101169.69
2023-04-15T17:22:00.990Z,101165.34
2023-04-15T17:24:28.827Z,101161.63
2023-04-15T17:26:56.828Z,101162.06
2023-04-15T17:29:25.010Z,101169.28
2023-04-15T17:31:52.586Z,101170.75
2023-04-15T17:34:20.413Z,101176.50
2023-04-15T17:36:51.214Z,101177.34
2023-04-15T17:39:18.722Z,101186.41
2023-04-15T17:41:46.364Z,101184.97
2023-04-15T17:44:13.906Z,101180.84
2023-04-15T17:46:41.471Z,101186.44
2023-04-15T17:49:09.132Z,101186.44
2023-04-15T17:51:36.658Z,101192.81
2023-04-15T17:54:11.478Z,101192.00
2023-04-15T17:56:39.086Z,101201.28
2023-04-15T17:59:08.735Z,101207.88
2023-04-15T18:01:36.395Z,101203.53
2023-04-15T18:04:04.265Z,101215.94
2023-04-15T18:06:32.285Z,101222.50
2023-04-15T18:08:59.800Z,101223.34
2023-04-15T18:11:28.672Z,101224.34
2023-04-15T18:13:56.220Z,101230.53
2023-04-15T18:16:23.881Z,101224.56
2023-04-15T18:18:52.126Z,101241.00
2023-04-15T18:21:19.652Z,101237.28
2023-04-15T18:23:47.155Z,101241.19
2023-04-15T18:26:14.713Z,101251.28
2023-04-15T18:28:43.579Z,101246.94
2023-04-15T18:31:11.292Z,101262.38
2023-04-15T18:33:40.284Z,101272.22
2023-04-15T18:36:07.851Z,101268.53
2023-04-15T18:38:35.474Z,101278.56
2023-04-15T18:41:03.006Z,101270.56
2023-04-15T18:43:30.556Z,101269.09
2023-04-15T18:45:59.640Z,101280.59
2023-04-15T18:48:27.326Z,101284.72
2023-04-15T18:50:54.909Z,101290.72
2023-04-15T18:53:22.525Z,101296.66
2023-04-15T18:55:50.093Z,101295.34
2023-04-15T18:58:17.637Z,101300.25
2023-04-15T19:00:45.276Z,101301.22
2023-04-15T19:03:14.629Z,101300.59
2023-04-15T19:05:42.324Z,101304.91
2023-04-15T19:08:09.895Z,101298.56
2023-04-15T19:10:37.588Z,101304.28
2023-04-15T19:13:05.650Z,101304.19
2023-04-15T19:15:33.220Z,101319.34
2023-04-15T19:18:00.976Z,101308.28
2023-04-15T19:20:29.908Z,101316.50
2023-04-15T19:22:57.586Z,101330.81
2023-04-15T19:25:25.273Z,101329.13
2023-04-15T19:27:52.828Z,101337.09
2023-04-15T19:30:21.203Z,101336.31
2023-04-15T19:32:48.833Z,101338.44
2023-04-15T19:35:16.628Z,101344.38
2023-04-15T19:37:45.506Z,101352.56
2023-04-15T19:40:13.624Z,101355.84
2023-04-15T19:42:41.305Z,101359.69
2023-04-15T19:45:09.594Z,101365.78
2023-04-15T19:47:37.553Z,101364.09
2023-04-15T19:50:07.201Z,101367.44
2023-04-15T19:52:34.976Z,101369.91
2023-04-15T19:55:04.290Z,101372.72
2023-04-15T19:57:31.846Z,101377.25
2023-04-15T19:59:59.346Z,101368.59
2023-04-15T20:02:27.039Z,101378.91
2023-04-15T20:04:54.689Z,101379.38
2023-04-15T20:07:22.196Z,101377.91
2023-04-15T20:09:51.558Z,101374.34
2023-04-15T20:12:49.773Z,101381.97
2023-04-15T20:15:09.475Z,101386.88
2023-04-15T20:17:37.582Z,101390.31
2023-04-15T20:20:06.316Z,101395.34
2023-04-15T20:22:34.443Z,101396.75
2023-04-15T20:25:03.116Z,101400.44
2023-04-15T20:27:31.965Z,101398.31
2023-04-15T20:29:59.518Z,101396.06
2023-04-15T20:32:28.274Z,101397.88
2023-04-15T20:34:56.280Z,101399.59
2023-04-15T20:37:23.774Z,101409.50
2023-04-15T20:39:51.463Z,101400.50
2023-04-15T20:42:20.757Z,101394.94
2023-04-15T20:44:49.669Z,101408.72
2023-04-15T20:47:17.331Z,101405.34
2023-04-15T20:49:45.634Z,101411.97
2023-04-15T20:52:13.155Z,101411.78
2023-04-15T20:54:40.724Z,101420.53
2023-04-15T20:57:08.315Z,101425.44
2023-04-15T20:59:36.006Z,101418.06
2023-04-15T21:02:04.996Z,101415.56
2023-04-15T21:04:32.691Z,101409.06
2023-04-15T21:07:00.277Z,101422.56
2023-04-15T21:09:27.838Z,101418.44
2023-04-15T21:12:00.552Z,101425.22
2023-04-15T21:14:29.437Z,101427.81
2023-04-15T21:16:57.912Z,101424.91
2023-04-15T21:19:26.897Z,101431.22
2023-04-15T21:21:54.405Z,101432.28
2023-04-15T21:24:21.947Z,101435.19
2023-04-15T21:26:49.434Z,101433.16
2023-04-15T21:29:17.086Z,101432.72
2023-04-15T21:31:44.901Z,101444.03
2023-04-15T21:34:12.514Z,101437.50
2023-04-15T21:36:41.388Z,101438.88
2023-04-15T21:39:08.979Z,101443.56
2023-04-15T21:41:37.498Z,101447.69
2023-04-15T21:44:05.248Z,101448.75
2023-04-15T21:46:35.493Z,101457.16
2023-04-15T21:49:04.416Z,101463.59
2023-04-15T21:51:32.547Z,101460.75
2023-04-15T21:54:01.551Z,101452.31
2023-04-15T21:56:29.400Z,101459.41
2023-04-15T21:58:58.539Z,101463.34
2023-04-15T22:01:26.509Z,101466.75
2023-04-15T22:03:54.513Z,101473.13
2023-04-15T22:06:22.518Z,101466.25
2023-04-15T22:08:57.095Z,101467.03
2023-04-15T22:11:30.828Z,101467.41
2023-04-15T22:13:58.681Z,101464.56
2023-04-15T22:16:26.733Z,101462.72
2023-04-15T22:18:54.832Z,101469.81
2023-04-15T22:21:22.394Z,101466.75
2023-04-15T22:23:50.373Z,101472.84
2023-04-15T22:26:17.913Z,101473.56
2023-04-15T22:28:46.758Z,101473.94
2023-04-15T22:31:14.824Z,101478.16
2023-04-15T22:33:42.448Z,101475.34
2023-04-15T22:36:09.974Z,101489.03
2023-04-15T22:38:37.485Z,101475.59
2023-04-15T22:41:05.084Z,101479.56
2023-04-15T22:43:32.621Z,101477.44
2023-04-15T22:46:02.103Z,101482.31
2023-04-15T22:48:29.639Z,101482.50
2023-04-15T22:50:57.224Z,101489.41
2023-04-15T22:53:24.731Z,101495.84
2023-04-15T22:55:53.786Z,101490.03
2023-04-15T22:58:21.316Z,101503.47
2023-04-15T23:00:49.428Z,101503.25
2023-04-15T23:03:18.474Z,101500.88
2023-04-15T23:05:46.595Z,101512.81
2023-04-15T23:08:14.136Z,101505.81
2023-04-15T23:10:41.973Z,101516.41
2023-04-15T23:13:09.531Z,101513.66
2023-04-15T23:15:37.019Z,101517.50
2023-04-15T23:18:04.711Z,101527.91
2023-04-15T23:20:33.792Z,101528.25
2023-04-15T23:23:01.414Z,101530.06
2023-04-15T23:25:29.078Z,101530.69
2023-04-15T23:27:56.639Z,101532.38
2023-04-15T23:30:24.221Z,101529.69
2023-04-15T23:32:51.777Z,101533.38
2023-04-15T23:35:19.484Z,101536.91
2023-04-15T23:37:48.368Z,101544.75
2023-04-15T23:40:16.250Z,101545.38
2023-04-15T23:42:44.214Z,101544.03
2023-04-15T23:45:12.563Z,101539.72
2023-04-15T23:47:40.505Z,101541.56
2023-04-15T23:50:09.390Z,101544.38
2023-04-15T23:52:37.285Z,101541.06
2023-04-15T23:55:07.117Z,101542.06
2023-04-15T23:57:34.714Z,101544.84
